Time;durP1;ratioP1;P1;durP2;ratioP2;P2;SDS_P1;SDS_P2;PMS_P1;PMS_P2;Temp;Humidity;BMP_temperature;BMP_pressure;BME280_temperature;BME280_humidity;BME280_pressure;Samples;Min_cycle;Max_cycle;Signal;HPM_P1;HPM_P2
2022/12/21 00:01:10;;;;;;;150.57;33.00;;;7.60;99.90;;;;;;5004975;28;20559;-59
2022/12/21 00:03:36;;;;;;;209.90;36.65;;;7.60;99.90;;;;;;5015463;28;20839;-59
2022/12/21 00:06:03;;;;;;;177.23;36.80;;;7.60;99.90;;;;;;5003744;28;20038;-60
2022/12/21 00:08:30;;;;;;;134.70;32.17;;;7.50;99.90;;;;;;5004935;28;20135;-58
2022/12/21 00:10:59;;;;;;;144.15;34.63;;;7.50;99.90;;;;;;5004964;28;20046;-59
2022/12/21 00:13:25;;;;;;;167.05;35.58;;;7.50;99.90;;;;;;5005933;28;20068;-60
2022/12/21 00:16:03;;;;;;;157.65;33.88;;;7.40;99.90;;;;;;5004713;28;20096;-59
2022/12/21 00:18:31;;;;;;;152.27;34.10;;;7.40;99.90;;;;;;5004091;28;20180;-59
2022/12/21 00:21:20;;;;;;;125.03;31.00;;;7.30;99.90;;;;;;5004249;28;20046;-59
2022/12/21 00:23:49;;;;;;;158.52;31.70;;;7.30;99.90;;;;;;5005362;28;20131;-59
2022/12/21 00:26:17;;;;;;;124.82;32.60;;;7.20;99.90;;;;;;5005569;28;20045;-59
2022/12/21 00:28:42;;;;;;;151.02;34.75;;;7.20;99.90;;;;;;5003436;28;20341;-59
2022/12/21 00:31:10;;;;;;;135.48;34.00;;;7.10;99.90;;;;;;5004939;28;20042;-59
2022/12/21 00:33:36;;;;;;;157.27;34.15;;;7.10;99.90;;;;;;5004140;28;20180;-60
2022/12/21 00:36:03;;;;;;;154.27;34.53;;;7.00;99.90;;;;;;5003489;28;20120;-60
2022/12/21 00:38:29;;;;;;;174.98;36.78;;;7.00;99.90;;;;;;5004364;28;20038;-59
2022/12/21 00:40:59;;;;;;;190.52;36.45;;;7.00;99.90;;;;;;5004198;28;20045;-58
2022/12/21 00:43:25;;;;;;;242.20;39.53;;;7.00;99.90;;;;;;5005279;28;20185;-59
2022/12/21 00:45:51;;;;;;;277.85;41.08;;;7.00;99.90;;;;;;5004920;28;20531;-58
2022/12/21 00:48:16;;;;;;;372.13;45.60;;;7.00;99.90;;;;;;5016557;28;20037;-59
2022/12/21 00:50:42;;;;;;;491.52;51.33;;;7.00;99.90;;;;;;5003908;28;20135;-59
2022/12/21 00:53:08;;;;;;;421.60;49.05;;;7.00;99.90;;;;;;5002455;28;20171;-59
2022/12/21 00:55:34;;;;;;;381.27;47.88;;;7.00;99.90;;;;;;5003586;28;20042;-60
2022/12/21 00:58:00;;;;;;;496.50;51.80;;;7.00;99.90;;;;;;5004607;28;20519;-59
2022/12/21 01:00:27;;;;;;;466.90;51.80;;;7.00;99.90;;;;;;5003388;28;20085;-60
2022/12/21 01:02:52;;;;;;;440.90;48.38;;;7.00;99.90;;;;;;5003609;28;20648;-59
2022/12/21 01:05:18;;;;;;;430.83;46.85;;;7.00;99.90;;;;;;5003551;28;20083;-58
2022/12/21 01:07:44;;;;;;;372.92;40.40;;;7.00;99.90;;;;;;5002181;28;20311;-57
2022/12/21 01:10:10;;;;;;;457.20;50.38;;;7.00;99.90;;;;;;5004142;28;20472;-60
2022/12/21 01:12:36;;;;;;;476.80;51.20;;;7.00;99.90;;;;;;5002996;28;20048;-60
2022/12/21 01:15:02;;;;;;;474.67;52.03;;;7.00;99.90;;;;;;5004489;28;20030;-58
2022/12/21 01:17:28;;;;;;;354.90;42.90;;;7.00;99.90;;;;;;5004490;28;20046;-60
2022/12/21 01:19:53;;;;;;;391.52;45.95;;;7.00;99.90;;;;;;5000856;28;20459;-59
2022/12/21 01:22:19;;;;;;;459.15;50.35;;;7.00;99.90;;;;;;5003339;28;20524;-59
2022/12/21 01:24:46;;;;;;;386.02;43.72;;;7.00;99.90;;;;;;5004410;28;20432;-59
2022/12/21 01:27:11;;;;;;;373.67;44.80;;;6.90;99.90;;;;;;5004022;28;20038;-59
2022/12/21 01:29:37;;;;;;;381.88;44.00;;;6.90;99.90;;;;;;5003925;28;20053;-59
2022/12/21 01:32:03;;;;;;;430.92;46.13;;;6.90;99.90;;;;;;5004226;28;20050;-59
2022/12/21 01:34:28;;;;;;;397.27;45.17;;;6.90;99.90;;;;;;5002875;28;20109;-59
2022/12/21 01:36:54;;;;;;;364.42;41.97;;;6.80;99.90;;;;;;5002530;28;20041;-60
2022/12/21 01:39:19;;;;;;;445.13;45.15;;;6.80;99.90;;;;;;5003610;28;20474;-59
2022/12/21 01:41:45;;;;;;;368.05;42.08;;;6.80;99.90;;;;;;5004302;28;20034;-59
2022/12/21 01:44:55;;;;;;;327.38;39.53;;;6.80;99.90;;;;;;5002712;28;20424;-59
2022/12/21 01:47:28;;;;;;;392.27;43.65;;;6.80;99.90;;;;;;5004461;28;20117;-59
2022/12/21 01:50:03;;;;;;;371.40;42.67;;;6.70;99.90;;;;;;5001735;28;20049;-59
2022/12/21 01:52:30;;;;;;;387.95;43.70;;;6.70;99.90;;;;;;5002313;28;20424;-59
2022/12/21 01:55:02;;;;;;;371.33;42.33;;;6.70;99.90;;;;;;5004032;28;20046;-59
2022/12/21 01:57:30;;;;;;;397.08;43.80;;;6.70;99.90;;;;;;5003195;28;20041;-60
2022/12/21 01:59:58;;;;;;;454.80;47.33;;;6.70;99.90;;;;;;5003796;28;20034;-60
2022/12/21 02:02:29;;;;;;;374.85;38.75;;;6.70;99.90;;;;;;5003680;28;20049;-60
2022/12/21 02:05:03;;;;;;;351.17;38.35;;;6.70;99.90;;;;;;5002369;28;20049;-59
2022/12/21 02:07:30;;;;;;;378.13;39.63;;;6.70;99.90;;;;;;5001225;28;20050;-59
2022/12/21 02:09:56;;;;;;;308.17;38.50;;;6.70;99.90;;;;;;5002151;28;20041;-58
2022/12/21 02:12:23;;;;;;;367.83;39.08;;;6.60;99.90;;;;;;5003636;28;20099;-59
2022/12/21 02:14:48;;;;;;;343.80;37.80;;;6.60;99.90;;;;;;5002788;28;20034;-59
2022/12/21 02:17:53;;;;;;;399.73;40.40;;;6.60;99.90;;;;;;5003402;28;20096;-59
2022/12/21 02:20:35;;;;;;;384.92;38.83;;;6.60;99.90;;;;;;5001974;28;20042;-59
2022/12/21 02:23:24;;;;;;;390.80;40.50;;;6.50;99.90;;;;;;5002648;28;20052;-59
2022/12/21 02:26:11;;;;;;;345.33;38.00;;;6.50;99.90;;;;;;5002759;28;20046;-59
2022/12/21 02:29:13;;;;;;;318.35;36.17;;;6.50;99.90;;;;;;5002137;28;20058;-60
2022/12/21 02:31:57;;;;;;;303.23;34.33;;;6.50;99.90;;;;;;5004094;28;20041;-59
2022/12/21 02:34:28;;;;;;;388.58;37.83;;;6.50;99.90;;;;;;5002754;28;20046;-59
2022/12/21 02:37:11;;;;;;;388.55;37.30;;;6.50;99.90;;;;;;5001308;28;20093;-60
2022/12/21 02:40:02;;;;;;;247.70;27.67;;;6.40;99.90;;;;;;5004220;28;20049;-59
2022/12/21 02:45:24;;;;;;;269.23;27.20;;;6.30;99.90;;;;;;5003614;28;20128;-59
2022/12/21 02:48:05;;;;;;;338.50;31.83;;;6.20;99.90;;;;;;5002449;28;20536;-60
2022/12/21 02:50:37;;;;;;;294.15;31.95;;;6.20;99.90;;;;;;4999933;28;20038;-59
2022/12/21 02:53:14;;;;;;;234.35;28.90;;;6.20;99.90;;;;;;5002653;28;20190;-60
2022/12/21 02:55:39;;;;;;;229.18;27.83;;;6.10;99.90;;;;;;5003439;28;20554;-60
2022/12/21 02:58:20;;;;;;;249.75;29.00;;;6.20;99.90;;;;;;5001601;28;20104;-59
2022/12/21 03:00:56;;;;;;;291.25;31.02;;;6.20;99.90;;;;;;5003136;28;20052;-59
2022/12/21 03:03:50;;;;;;;299.65;29.90;;;6.10;99.90;;;;;;5002874;28;20417;-60
2022/12/21 03:06:40;;;;;;;327.63;28.95;;;6.20;99.90;;;;;;5006526;28;20046;-60
2022/12/21 03:09:33;;;;;;;335.02;31.33;;;6.20;99.90;;;;;;5006884;28;20657;-59
2022/12/21 03:12:02;;;;;;;444.63;33.78;;;6.20;99.90;;;;;;5006664;28;20081;-60
2022/12/21 03:14:58;;;;;;;448.38;36.72;;;6.20;99.90;;;;;;5006741;28;20042;-59
2022/12/21 03:17:49;;;;;;;408.33;34.38;;;6.20;99.90;;;;;;5000358;28;20180;-60
2022/12/21 03:20:25;;;;;;;467.58;36.90;;;6.20;99.90;;;;;;5004847;28;20096;-59
2022/12/21 03:23:38;;;;;;;387.38;33.60;;;6.20;99.90;;;;;;5005124;28;20050;-61
2022/12/21 03:26:14;;;;;;;391.50;31.35;;;6.30;99.90;;;;;;4984213;28;20065;-61
2022/12/21 03:28:43;;;;;;;302.45;29.38;;;6.30;99.90;;;;;;4983743;28;20054;-59
2022/12/21 03:31:13;;;;;;;357.75;29.75;;;6.30;99.90;;;;;;4997054;28;20626;-59
2022/12/21 03:33:45;;;;;;;279.50;25.77;;;6.30;99.90;;;;;;5005121;28;20088;-60
2022/12/21 03:36:16;;;;;;;339.88;30.88;;;6.40;99.90;;;;;;5003708;28;20088;-60
2022/12/21 03:38:56;;;;;;;350.00;30.00;;;6.30;99.90;;;;;;5006619;28;20675;-59
2022/12/21 03:41:29;;;;;;;270.88;28.00;;;6.40;99.90;;;;;;5005956;28;20042;-60
2022/12/21 03:43:57;;;;;;;333.08;29.50;;;6.40;99.90;;;;;;5006532;28;20125;-60
2022/12/21 03:46:29;;;;;;;349.55;30.20;;;6.40;99.90;;;;;;5005828;28;20038;-60
2022/12/21 03:49:07;;;;;;;324.95;29.55;;;6.40;99.90;;;;;;5004039;28;20048;-60
2022/12/21 03:51:53;;;;;;;282.75;26.88;;;6.40;99.90;;;;;;5004624;28;20049;-60
2022/12/21 03:54:39;;;;;;;257.13;25.70;;;6.40;99.90;;;;;;5006137;28;20042;-59
2022/12/21 03:57:06;;;;;;;287.23;26.95;;;6.40;99.90;;;;;;4986667;28;20069;-60
2022/12/21 03:59:32;;;;;;;293.25;26.13;;;6.40;99.90;;;;;;4985996;28;20049;-59
2022/12/21 04:02:11;;;;;;;274.75;25.20;;;6.40;99.90;;;;;;5001211;28;20046;-60
2022/12/21 04:04:50;;;;;;;233.68;24.50;;;6.40;99.90;;;;;;5003309;28;20029;-59
2022/12/21 04:07:23;;;;;;;264.13;25.25;;;6.40;99.90;;;;;;5004139;28;20417;-60
2022/12/21 04:09:56;;;;;;;300.85;26.83;;;6.40;99.90;;;;;;5006044;28;20056;-61
2022/12/21 04:12:38;;;;;;;243.60;24.88;;;6.40;99.90;;;;;;5005155;28;20121;-61
2022/12/21 04:15:09;;;;;;;362.52;27.80;;;6.40;99.90;;;;;;5005367;28;20037;-60
2022/12/21 04:17:36;;;;;;;344.52;27.63;;;6.40;99.90;;;;;;5003356;28;20061;-59
2022/12/21 04:20:03;;;;;;;292.60;24.38;;;6.40;99.90;;;;;;5003690;28;20575;-60
2022/12/21 04:28:07;;;;;;;189.13;21.17;;;6.30;99.90;;;;;;5004821;28;20046;-60
2022/12/21 04:30:43;;;;;;;257.73;24.35;;;6.30;99.90;;;;;;5005263;28;20049;-60
2022/12/21 04:33:12;;;;;;;448.42;30.85;;;6.30;99.90;;;;;;5004445;28;20084;-59
2022/12/21 04:37:30;;;;;;;401.23;26.85;;;6.30;99.90;;;;;;5004015;28;20339;-59
2022/12/21 04:38:26;;;;;;;396.40;27.40;;;6.20;99.90;;;;;;5004649;28;20132;-60
2022/12/21 04:40:53;;;;;;;367.75;25.13;;;6.20;99.90;;;;;;5004392;28;20049;-60
2022/12/21 04:43:19;;;;;;;401.52;26.50;;;6.20;99.90;;;;;;5005096;28;20034;-59
2022/12/21 04:45:45;;;;;;;275.40;21.83;;;6.10;99.90;;;;;;5005261;28;20045;-59
2022/12/21 04:48:10;;;;;;;352.73;24.75;;;6.10;99.90;;;;;;5002523;28;20057;-59
2022/12/21 04:50:41;;;;;;;301.48;21.88;;;6.10;99.90;;;;;;5001067;28;20048;-60
2022/12/21 04:53:07;;;;;;;292.70;22.20;;;6.00;99.90;;;;;;5002480;28;20057;-59
2022/12/21 04:55:32;;;;;;;311.52;23.08;;;6.00;99.90;;;;;;5004559;28;20060;-60
2022/12/21 04:57:58;;;;;;;386.25;27.40;;;5.90;99.90;;;;;;5004617;28;20037;-59
2022/12/21 05:00:23;;;;;;;329.40;25.42;;;5.90;99.90;;;;;;5004528;28;20041;-61
2022/12/21 05:02:50;;;;;;;357.00;27.05;;;5.90;99.90;;;;;;5004334;28;20038;-61
2022/12/21 05:05:15;;;;;;;258.80;26.55;;;5.90;99.90;;;;;;5003213;28;20053;-59
2022/12/21 05:07:41;;;;;;;350.70;27.85;;;5.90;99.90;;;;;;5003210;28;20433;-60
2022/12/21 05:10:07;;;;;;;385.15;28.73;;;5.90;99.90;;;;;;5003018;28;20544;-60
2022/12/21 05:12:33;;;;;;;325.50;27.38;;;5.90;99.90;;;;;;5004834;28;20077;-59
2022/12/21 05:14:58;;;;;;;308.20;26.38;;;5.90;99.90;;;;;;5004323;28;20061;-60
2022/12/21 05:17:24;;;;;;;353.95;28.30;;;5.90;99.90;;;;;;5004000;28;20068;-60
2022/12/21 05:19:49;;;;;;;432.23;31.15;;;5.90;99.90;;;;;;5001161;28;20159;-61
2022/12/21 05:22:18;;;;;;;312.10;26.90;;;5.90;99.90;;;;;;5003061;28;20111;-60
2022/12/21 05:24:44;;;;;;;296.02;25.52;;;5.90;99.90;;;;;;5004510;28;20045;-59
2022/12/21 05:27:10;;;;;;;306.17;25.00;;;5.90;99.90;;;;;;5004077;28;20381;-59
2022/12/21 05:29:36;;;;;;;317.38;24.80;;;5.90;99.90;;;;;;5004111;28;20045;-59
2022/12/21 05:32:01;;;;;;;238.15;23.85;;;5.90;99.90;;;;;;5004144;28;20044;-59
2022/12/21 05:34:27;;;;;;;357.35;28.67;;;5.80;99.90;;;;;;5001711;28;20042;-60
2022/12/21 05:36:52;;;;;;;346.25;27.35;;;5.80;99.90;;;;;;5003245;28;20136;-60
2022/12/21 05:39:18;;;;;;;364.52;28.20;;;5.80;99.90;;;;;;5004040;28;20037;-59
2022/12/21 05:41:43;;;;;;;351.75;27.90;;;5.80;99.90;;;;;;5004774;28;20034;-59
2022/12/21 05:44:09;;;;;;;356.08;27.20;;;5.80;99.90;;;;;;5004188;28;20041;-59
2022/12/21 05:46:35;;;;;;;342.70;26.83;;;5.80;99.90;;;;;;5004161;28;20037;-60
2022/12/21 05:49:01;;;;;;;380.73;28.73;;;5.80;99.90;;;;;;5001611;28;20049;-60
2022/12/21 05:51:27;;;;;;;455.40;33.33;;;5.80;99.90;;;;;;5002121;28;20357;-61
2022/12/21 05:53:53;;;;;;;453.48;32.10;;;5.90;99.90;;;;;;5004120;28;20046;-60
2022/12/21 05:56:19;;;;;;;425.95;31.92;;;5.90;99.90;;;;;;5002716;28;20034;-59
2022/12/21 05:58:45;;;;;;;439.95;32.63;;;5.90;99.90;;;;;;5003428;28;20050;-59
2022/12/21 06:01:11;;;;;;;366.48;31.65;;;5.90;99.90;;;;;;5002659;28;20046;-60
2022/12/21 06:03:37;;;;;;;416.20;32.97;;;5.90;99.90;;;;;;5002830;28;20037;-59
2022/12/21 06:06:05;;;;;;;371.33;33.03;;;5.90;99.90;;;;;;5002389;28;20482;-61
2022/12/21 06:08:31;;;;;;;343.40;30.45;;;5.90;99.90;;;;;;5003432;28;20042;-60
2022/12/21 06:11:02;;;;;;;285.25;30.52;;;5.90;99.90;;;;;;5004316;28;20049;-60
2022/12/21 06:13:27;;;;;;;273.83;28.30;;;5.90;99.90;;;;;;5004748;28;20038;-60
2022/12/21 06:15:53;;;;;;;226.88;27.05;;;5.90;99.90;;;;;;5003526;28;20041;-59
2022/12/21 06:18:18;;;;;;;314.48;31.35;;;5.90;99.90;;;;;;5002193;28;20670;-60
2022/12/21 06:20:50;;;;;;;299.40;28.52;;;5.90;99.90;;;;;;5003424;28;20598;-59
2022/12/21 06:23:16;;;;;;;275.58;28.75;;;5.80;99.90;;;;;;5002798;28;20042;-60
2022/12/21 06:25:41;;;;;;;305.38;32.42;;;5.80;99.90;;;;;;5003679;28;20073;-59
2022/12/21 06:28:07;;;;;;;293.08;33.60;;;5.80;99.90;;;;;;5002843;28;20056;-59
2022/12/21 06:30:32;;;;;;;344.50;34.92;;;5.80;99.90;;;;;;5003399;28;20038;-61
2022/12/21 06:32:58;;;;;;;350.45;33.20;;;5.80;99.90;;;;;;5003025;28;20105;-60
2022/12/21 06:35:23;;;;;;;350.77;36.78;;;5.80;99.90;;;;;;5001833;28;20069;-60
2022/12/21 06:37:49;;;;;;;374.38;35.53;;;5.90;99.90;;;;;;5002352;28;20034;-61
2022/12/21 06:40:15;;;;;;;342.25;33.03;;;5.90;99.90;;;;;;5005064;28;20265;-60
2022/12/21 06:42:40;;;;;;;250.35;31.08;;;5.90;99.90;;;;;;5005099;28;20314;-60
2022/12/21 06:45:06;;;;;;;362.00;36.65;;;5.90;99.90;;;;;;5004803;28;20053;-59
2022/12/21 06:47:31;;;;;;;505.90;42.72;;;5.90;99.90;;;;;;5005423;28;20040;-59
2022/12/21 06:49:57;;;;;;;384.75;39.13;;;5.90;99.90;;;;;;5003782;28;20041;-59
2022/12/21 06:52:23;;;;;;;401.92;37.95;;;5.90;99.90;;;;;;5005124;28;20064;-61
2022/12/21 06:54:48;;;;;;;387.80;38.60;;;5.90;99.90;;;;;;5005600;28;20111;-59
2022/12/21 06:57:14;;;;;;;362.42;40.08;;;6.00;99.90;;;;;;5006255;28;20176;-60
2022/12/21 06:59:39;;;;;;;427.58;43.13;;;6.00;99.90;;;;;;5005919;28;20132;-59
2022/12/21 07:02:05;;;;;;;423.77;41.20;;;6.00;99.90;;;;;;5007342;28;20041;-59
2022/12/21 07:04:31;;;;;;;395.92;41.65;;;6.00;99.90;;;;;;5005527;28;20401;-60
2022/12/21 07:06:56;;;;;;;410.25;43.22;;;6.00;99.90;;;;;;5005159;28;20050;-59
2022/12/21 07:09:22;;;;;;;259.02;36.92;;;6.00;99.90;;;;;;5007153;28;20065;-59
2022/12/21 07:11:51;;;;;;;223.07;32.92;;;6.00;99.90;;;;;;5005061;28;20061;-59
2022/12/21 07:14:17;;;;;;;401.13;43.17;;;6.00;99.90;;;;;;5005474;28;20045;-59
2022/12/21 07:16:42;;;;;;;459.38;45.38;;;6.00;99.90;;;;;;5004361;28;20038;-60
2022/12/21 07:19:08;;;;;;;321.95;41.30;;;6.00;99.90;;;;;;5002071;28;20038;-60
2022/12/21 07:21:33;;;;;;;333.40;41.05;;;6.00;99.90;;;;;;5001892;28;20072;-60
2022/12/21 07:23:59;;;;;;;366.50;41.65;;;6.00;99.90;;;;;;5004901;28;20440;-61
2022/12/21 07:26:25;;;;;;;551.33;50.90;;;6.00;99.90;;;;;;5005934;28;20687;-59
2022/12/21 07:28:51;;;;;;;402.85;44.63;;;6.00;99.90;;;;;;5006863;28;20050;-59
2022/12/21 07:31:19;;;;;;;437.15;44.35;;;6.00;99.90;;;;;;5006309;28;20042;-60
2022/12/21 07:33:44;;;;;;;556.00;51.72;;;6.00;99.90;;;;;;5005416;28;20038;-58
2022/12/21 07:36:11;;;;;;;517.22;49.33;;;6.00;99.90;;;;;;5005014;28;20042;-59
2022/12/21 07:38:38;;;;;;;354.92;43.88;;;6.10;99.90;;;;;;5005289;28;20042;-59
2022/12/21 07:41:06;;;;;;;408.35;46.47;;;6.10;99.90;;;;;;5005125;28;20448;-58
2022/12/21 07:43:32;;;;;;;523.33;51.60;;;6.10;99.90;;;;;;5006515;28;20038;-59
2022/12/21 07:45:59;;;;;;;563.05;59.28;;;6.10;99.90;;;;;;5006779;28;20050;-58
2022/12/21 07:48:24;;;;;;;545.40;51.28;;;6.10;99.90;;;;;;5005125;28;20049;-57
2022/12/21 07:50:51;;;;;;;578.22;56.90;;;6.10;99.90;;;;;;5002451;28;20049;-58
2022/12/21 07:53:17;;;;;;;542.83;56.67;;;6.10;99.90;;;;;;5005313;28;20054;-58
2022/12/21 07:55:43;;;;;;;554.40;55.67;;;6.20;99.90;;;;;;5006168;28;20402;-59
2022/12/21 07:58:09;;;;;;;608.53;60.42;;;6.20;99.90;;;;;;5006363;28;20045;-58
2022/12/21 08:00:35;;;;;;;633.90;62.97;;;6.20;99.90;;;;;;5005822;28;20454;-59
2022/12/21 08:03:01;;;;;;;577.17;56.85;;;6.20;99.90;;;;;;5005710;28;20120;-58
2022/12/21 08:05:27;;;;;;;572.58;61.00;;;6.20;99.90;;;;;;5003975;28;20665;-58
2022/12/21 08:07:53;;;;;;;633.05;63.28;;;6.30;99.90;;;;;;5004957;28;20096;-59
2022/12/21 08:10:18;;;;;;;478.70;56.80;;;6.30;99.90;;;;;;5006053;28;20054;-59
2022/12/21 08:12:44;;;;;;;538.75;56.53;;;6.30;99.90;;;;;;5021355;28;20511;-57
2022/12/21 08:15:10;;;;;;;504.92;56.65;;;6.40;99.90;;;;;;5005623;28;20048;-59
2022/12/21 08:17:36;;;;;;;567.03;61.60;;;6.40;99.90;;;;;;5005513;28;20042;-58
2022/12/21 08:20:02;;;;;;;500.55;57.33;;;6.40;99.90;;;;;;5004005;28;20037;-59
2022/12/21 08:22:29;;;;;;;476.27;55.25;;;6.40;99.90;;;;;;5004898;28;20042;-58
2022/12/21 08:24:54;;;;;;;508.58;58.67;;;6.40;99.90;;;;;;5004234;28;20543;-59
2022/12/21 08:27:20;;;;;;;415.60;53.75;;;6.50;99.90;;;;;;5005186;28;20081;-59
2022/12/21 08:29:46;;;;;;;429.00;53.38;;;6.50;99.90;;;;;;5005847;28;20309;-58
2022/12/21 08:32:11;;;;;;;413.02;51.70;;;6.50;99.90;;;;;;5005579;28;20168;-58
2022/12/21 08:34:37;;;;;;;459.08;55.38;;;6.50;99.90;;;;;;5003686;28;20045;-59
2022/12/21 08:37:02;;;;;;;345.50;49.45;;;6.60;99.90;;;;;;5004041;28;20064;-57
2022/12/21 08:39:28;;;;;;;333.13;48.25;;;6.60;99.90;;;;;;5005605;28;20041;-58
2022/12/21 08:41:54;;;;;;;277.73;44.92;;;6.60;99.90;;;;;;5000869;28;20044;-59
2022/12/21 08:44:19;;;;;;;344.38;48.95;;;6.60;99.90;;;;;;4985844;28;20042;-58
2022/12/21 08:46:45;;;;;;;325.67;46.03;;;6.60;99.90;;;;;;4989702;28;20052;-59
2022/12/21 08:49:11;;;;;;;290.00;44.95;;;6.60;99.90;;;;;;5003814;28;20717;-58
2022/12/21 08:51:37;;;;;;;313.52;45.75;;;6.60;99.90;;;;;;5002363;28;20123;-58
2022/12/21 08:54:04;;;;;;;258.35;43.55;;;6.60;99.90;;;;;;5005632;28;20198;-59
2022/12/21 08:56:31;;;;;;;334.20;47.65;;;6.60;99.90;;;;;;5005440;28;20050;-58
2022/12/21 08:59:03;;;;;;;197.73;39.42;;;6.60;99.90;;;;;;5004534;28;20038;-58
2022/12/21 09:01:29;;;;;;;257.48;44.22;;;6.70;99.90;;;;;;5002831;28;20413;-58
2022/12/21 09:03:55;;;;;;;286.25;47.55;;;6.70;99.90;;;;;;5001927;28;20095;-58
2022/12/21 09:06:21;;;;;;;287.77;46.25;;;6.80;99.90;;;;;;5003597;28;20626;-59
2022/12/21 09:08:46;;;;;;;255.52;41.58;;;6.80;99.90;;;;;;5002774;28;20057;-58
2022/12/21 09:11:14;;;;;;;212.30;37.70;;;6.90;99.90;;;;;;5005611;28;20054;-59
2022/12/21 09:13:40;;;;;;;283.30;42.92;;;6.90;99.90;;;;;;5004968;28;20049;-58
2022/12/21 09:16:18;;;;;;;270.15;43.42;;;6.90;99.90;;;;;;5004620;28;20053;-58
2022/12/21 09:18:44;;;;;;;210.38;38.85;;;6.90;99.90;;;;;;5002653;28;20099;-58
2022/12/21 09:21:11;;;;;;;245.30;39.80;;;6.90;99.90;;;;;;5001741;28;20046;-59
2022/12/21 09:23:37;;;;;;;197.10;39.92;;;6.90;99.90;;;;;;5003711;28;20045;-58
2022/12/21 09:26:07;;;;;;;162.55;35.63;;;7.00;99.90;;;;;;5003707;28;20379;-58
2022/12/21 09:28:33;;;;;;;209.20;40.08;;;7.00;99.90;;;;;;5004358;28;20095;-58
2022/12/21 09:31:17;;;;;;;220.20;41.38;;;7.10;99.90;;;;;;5004563;28;20077;-59
2022/12/21 09:33:43;;;;;;;168.00;37.22;;;7.10;99.90;;;;;;5003200;28;20046;-59
2022/12/21 09:36:10;;;;;;;187.18;37.45;;;7.20;99.90;;;;;;4999417;28;20042;-58
2022/12/21 09:38:35;;;;;;;178.70;38.85;;;7.20;99.90;;;;;;5018481;28;20096;-57
2022/12/21 09:41:44;;;;;;;177.52;37.33;;;7.20;99.90;;;;;;5004308;28;20034;-59
2022/12/21 09:44:30;;;;;;;169.48;38.33;;;7.20;99.90;;;;;;4996589;28;20050;-58
2022/12/21 09:46:59;;;;;;;173.25;39.25;;;7.20;99.90;;;;;;5003882;28;20042;-58
2022/12/21 09:49:48;;;;;;;146.00;37.20;;;7.30;99.90;;;;;;5002546;28;20528;-59
2022/12/21 09:52:22;;;;;;;166.20;38.95;;;7.30;99.90;;;;;;5001649;28;20085;-58
2022/12/21 09:55:02;;;;;;;146.85;36.63;;;7.30;99.90;;;;;;5004284;28;20053;-59
2022/12/21 09:57:32;;;;;;;124.93;34.85;;;7.40;99.90;;;;;;5002881;28;20049;-59
2022/12/21 09:59:58;;;;;;;116.85;32.45;;;7.40;99.90;;;;;;5002827;28;20053;-59
2022/12/21 10:02:52;;;;;;;118.85;35.22;;;7.30;99.90;;;;;;5002396;28;20045;-59
2022/12/21 10:05:41;;;;;;;120.70;35.55;;;7.30;99.90;;;;;;5002592;28;20293;-58
2022/12/21 10:08:32;;;;;;;132.60;36.30;;;7.40;99.90;;;;;;5001456;28;20068;-58
2022/12/21 10:11:31;;;;;;;124.85;37.30;;;7.40;99.90;;;;;;5003342;28;20056;-57
2022/12/21 10:14:12;;;;;;;135.20;38.90;;;7.40;99.90;;;;;;5003531;28;20605;-58
2022/12/21 10:16:51;;;;;;;136.18;39.15;;;7.50;99.90;;;;;;5007592;28;20124;-58
2022/12/21 10:19:41;;;;;;;119.68;37.58;;;7.50;99.90;;;;;;5007294;28;20077;-58
2022/12/21 10:22:12;;;;;;;130.55;37.45;;;7.50;99.90;;;;;;5006865;28;20042;-58
2022/12/21 10:24:49;;;;;;;131.43;37.88;;;7.60;99.90;;;;;;5006747;28;20094;-58
2022/12/21 10:27:23;;;;;;;106.72;35.03;;;7.70;99.90;;;;;;5007290;28;20132;-59
2022/12/21 10:29:54;;;;;;;120.55;37.33;;;7.70;99.90;;;;;;5007982;28;20382;-59
2022/12/21 10:32:22;;;;;;;88.97;33.15;;;7.70;99.90;;;;;;5007864;28;20073;-58
2022/12/21 10:34:50;;;;;;;85.05;33.22;;;7.80;99.90;;;;;;5004860;28;20080;-57
2022/12/21 10:37:18;;;;;;;88.00;31.23;;;7.90;99.90;;;;;;5006358;28;20046;-59
2022/12/21 10:39:46;;;;;;;83.93;31.23;;;7.90;99.90;;;;;;5007837;28;20104;-58
2022/12/21 10:42:31;;;;;;;86.40;31.58;;;7.90;99.90;;;;;;5007820;28;20100;-58
2022/12/21 10:44:58;;;;;;;74.63;29.55;;;7.90;99.90;;;;;;4988099;28;20069;-59
2022/12/21 10:47:23;;;;;;;81.57;30.42;;;7.90;99.90;;;;;;4987378;28;20042;-59
2022/12/21 10:49:52;;;;;;;64.00;26.20;;;7.90;99.90;;;;;;5002001;28;20378;-59
2022/12/21 10:52:39;;;;;;;71.05;29.02;;;7.80;99.90;;;;;;5006100;28;20389;-59
2022/12/21 10:55:19;;;;;;;65.25;25.42;;;7.90;99.90;;;;;;5007453;28;20085;-58
2022/12/21 10:58:23;;;;;;;54.83;22.65;;;7.80;99.90;;;;;;5007410;28;20404;-57
2022/12/21 11:01:21;;;;;;;60.50;23.42;;;7.80;99.90;;;;;;5005227;28;20077;-59
2022/12/21 11:04:05;;;;;;;62.42;25.30;;;7.70;99.90;;;;;;5005806;28;20056;-58
2022/12/21 11:06:31;;;;;;;;;;;7.70;99.90;;;;;;5005879;28;20045;-59
2022/12/21 11:08:57;;;;;;;63.08;25.23;;;7.60;99.90;;;;;;5007392;28;19928;-58
2022/12/21 11:11:31;;;;;;;62.00;24.55;;;7.60;99.90;;;;;;5006847;28;20264;-59
2022/12/21 11:14:03;;;;;;;66.90;24.42;;;7.60;99.90;;;;;;5005948;28;20173;-59
2022/12/21 11:16:31;;;;;;;70.55;27.17;;;7.60;99.90;;;;;;5005239;28;20046;-59
2022/12/21 11:19:00;;;;;;;68.32;27.13;;;7.70;99.90;;;;;;5005587;28;20053;-58
2022/12/21 11:21:53;;;;;;;67.65;25.90;;;7.80;99.90;;;;;;5005081;28;20636;-58
2022/12/21 11:24:23;;;;;;;67.57;27.25;;;7.90;99.90;;;;;;5006086;28;20528;-59
2022/12/21 11:26:56;;;;;;;62.92;24.27;;;8.00;99.90;;;;;;5006282;28;20871;-58
2022/12/21 11:29:36;;;;;;;70.65;27.30;;;8.10;99.90;;;;;;5007206;28;20157;-59
2022/12/21 11:32:05;;;;;;;64.13;24.92;;;8.30;99.90;;;;;;5006559;28;20186;-59
2022/12/21 11:34:36;;;;;;;59.05;25.17;;;8.50;99.90;;;;;;5005040;28;20092;-58
2022/12/21 11:37:06;;;;;;;58.10;23.83;;;8.60;99.90;;;;;;5004915;28;20124;-58
2022/12/21 11:39:32;;;;;;;60.47;26.25;;;8.70;99.90;;;;;;5006906;28;20571;-59
2022/12/21 11:41:58;;;;;;;58.78;24.33;;;8.80;99.90;;;;;;5005402;28;20046;-58
2022/12/21 11:44:26;;;;;;;62.10;25.50;;;8.90;99.90;;;;;;5006159;28;20065;-59
2022/12/21 11:47:22;;;;;;;60.95;24.80;;;8.90;99.90;;;;;;5004775;28;20096;-59
2022/12/21 11:50:17;;;;;;;53.00;22.85;;;9.00;99.90;;;;;;4999375;28;20204;-58
2022/12/21 11:53:06;;;;;;;58.03;23.00;;;9.00;99.90;;;;;;5005014;28;20061;-59
2022/12/21 11:56:11;;;;;;;55.65;23.75;;;9.00;99.90;;;;;;5006150;28;20042;-58
2022/12/21 11:58:55;;;;;;;53.80;21.38;;;9.00;99.90;;;;;;5005636;28;20046;-58
2022/12/21 12:01:54;;;;;;;46.35;20.98;;;9.00;99.90;;;;;;5005872;28;20597;-58
2022/12/21 12:04:46;;;;;;;51.70;20.75;;;8.90;99.90;;;;;;5004986;28;20042;-58
2022/12/21 12:07:43;;;;;;;54.53;22.08;;;8.70;99.90;;;;;;5004651;28;20128;-59
2022/12/21 12:10:21;;;;;;;53.22;19.95;;;8.60;99.90;;;;;;5005819;28;20034;-58
2022/12/21 12:13:23;;;;;;;53.75;20.02;;;8.60;99.90;;;;;;5004828;28;20057;-59
2022/12/21 12:16:16;;;;;;;55.92;20.70;;;8.50;99.90;;;;;;5002018;28;20062;-58
2022/12/21 12:18:47;;;;;;;53.10;21.38;;;8.50;99.90;;;;;;5004935;28;20129;-59
2022/12/21 12:21:30;;;;;;;54.97;20.83;;;8.50;99.90;;;;;;4984370;28;20045;-60
2022/12/21 12:24:39;;;;;;;54.72;21.65;;;8.50;99.90;;;;;;4997304;28;20054;-59
2022/12/21 12:27:19;;;;;;;56.25;20.38;;;8.40;99.90;;;;;;5005652;28;20076;-58
2022/12/21 12:30:02;;;;;;;52.40;21.30;;;8.40;99.90;;;;;;5005742;28;20127;-59
2022/12/21 12:32:53;;;;;;;56.55;21.98;;;8.50;99.90;;;;;;5005099;28;20425;-60
2022/12/21 12:35:37;;;;;;;50.22;20.17;;;8.50;99.90;;;;;;5003924;28;20670;-60
2022/12/21 12:38:17;;;;;;;49.50;20.30;;;8.50;99.90;;;;;;5003171;28;20052;-57
2022/12/21 12:40:51;;;;;;;59.55;21.23;;;8.60;99.90;;;;;;5005270;28;20078;-58
2022/12/21 12:43:25;;;;;;;;;;;8.60;99.90;;;;;;5006445;28;20378;-58
2022/12/21 12:46:05;;;;;;;55.20;21.55;;;8.60;99.90;;;;;;5005377;28;20368;-58
2022/12/21 12:48:43;;;;;;;48.85;21.00;;;8.60;99.90;;;;;;5003689;28;20044;-59
2022/12/21 12:51:24;;;;;;;60.30;22.00;;;8.60;99.90;;;;;;5003352;28;20085;-58
2022/12/21 12:54:07;;;;;;;57.72;22.00;;;8.70;99.90;;;;;;5004769;28;20049;-58
2022/12/21 12:57:24;;;;;;;55.83;21.08;;;8.70;99.90;;;;;;5005046;28;20049;-59
2022/12/21 12:59:59;;;;;;;51.38;20.80;;;8.80;99.90;;;;;;4982383;28;20514;-60
2022/12/21 13:02:43;;;;;;;57.83;21.17;;;8.80;99.90;;;;;;5003268;28;20121;-58
2022/12/21 13:05:24;;;;;;;56.15;21.58;;;8.80;99.90;;;;;;5003206;28;20160;-58